Time;durP1;ratioP1;P1;durP2;ratioP2;P2;SDS_P1;SDS_P2;PMS_P1;PMS_P2;Temp;Humidity;BMP_temperature;BMP_pressure;BME280_temperature;BME280_humidity;BME280_pressure;Samples;Min_cycle;Max_cycle;Signal;HPM_P1;HPM_P2
2022/09/08 00:00:59;;;;;;;3.10;1.20;;;21.00;99.90;;;;;;5034808;28;20467;-71
2022/09/08 00:03:27;;;;;;;3.00;1.30;;;20.90;99.90;;;;;;5035133;28;20319;-70
2022/09/08 00:06:04;;;;;;;3.05;1.40;;;20.80;99.90;;;;;;5034958;28;20028;-72
2022/09/08 00:08:30;;;;;;;2.50;1.63;;;20.80;99.90;;;;;;5016996;28;20024;-72
2022/09/08 00:10:58;;;;;;;2.78;1.65;;;20.80;99.90;;;;;;5034708;28;20033;-69
2022/09/08 00:13:26;;;;;;;2.40;1.75;;;20.90;99.90;;;;;;5034757;28;20032;-71
2022/09/08 00:15:54;;;;;;;3.42;2.55;;;21.10;99.90;;;;;;5016655;28;20388;-72
2022/09/08 00:18:20;;;;;;;2.92;2.08;;;21.10;99.90;;;;;;5034620;28;20029;-70
2022/09/08 00:20:46;;;;;;;6.05;3.80;;;21.10;99.90;;;;;;5016740;28;20021;-70
2022/09/08 00:23:11;;;;;;;6.88;4.55;;;21.10;99.90;;;;;;5034468;28;20021;-72
2022/09/08 00:25:37;;;;;;;3.33;3.00;;;21.10;99.90;;;;;;5034629;28;20029;-71
2022/09/08 00:28:03;;;;;;;4.32;3.13;;;21.20;99.90;;;;;;5016741;28;20025;-73
2022/09/08 00:30:30;;;;;;;4.13;3.00;;;21.30;99.90;;;;;;5034204;28;20532;-71
2022/09/08 00:32:56;;;;;;;4.18;3.10;;;21.40;99.90;;;;;;5034352;28;20172;-70
2022/09/08 00:35:22;;;;;;;6.82;4.57;;;21.40;99.90;;;;;;5034217;28;20116;-71
2022/09/08 00:37:52;;;;;;;4.95;3.47;;;21.40;99.90;;;;;;5034365;28;20053;-70
2022/09/08 00:40:18;;;;;;;5.32;3.65;;;21.40;99.90;;;;;;5034184;28;20037;-70
2022/09/08 00:42:43;;;;;;;5.15;3.60;;;21.40;99.90;;;;;;5034209;28;20160;-70
2022/09/08 00:45:12;;;;;;;3.67;2.70;;;21.30;99.90;;;;;;5034018;28;20060;-71
2022/09/08 00:47:58;;;;;;;3.00;2.70;;;21.30;99.90;;;;;;5034068;28;20041;-72
2022/09/08 00:50:27;;;;;;;2.50;1.85;;;21.30;99.90;;;;;;5033952;28;20103;-71
2022/09/08 00:53:00;;;;;;;2.13;1.92;;;21.30;99.90;;;;;;5016215;28;20025;-72
2022/09/08 00:55:28;;;;;;;1.42;1.30;;;21.30;99.90;;;;;;5033771;28;20513;-71
2022/09/08 00:57:53;;;;;;;1.77;1.42;;;21.40;99.90;;;;;;5016014;28;20028;-71
2022/09/08 01:00:20;;;;;;;1.55;1.45;;;21.40;99.90;;;;;;5033706;28;20026;-71
2022/09/08 01:02:46;;;;;;;1.15;1.05;;;21.40;99.90;;;;;;5016208;28;20021;-70
2022/09/08 01:05:19;;;;;;;3.08;1.70;;;21.40;99.90;;;;;;5033739;28;20410;-72
2022/09/08 01:14:10;;;;;;;3.70;2.85;;;21.30;99.90;;;;;;4996136;28;20060;-71
2022/09/08 01:16:42;;;;;;;4.38;3.10;;;21.00;99.90;;;;;;5015998;28;20025;-73
2022/09/08 01:19:18;;;;;;;2.50;2.30;;;20.80;99.90;;;;;;5033539;28;20379;-70
2022/09/08 01:21:50;;;;;;;3.33;2.50;;;20.70;99.90;;;;;;5033657;28;20028;-72
2022/09/08 01:24:25;;;;;;;2.72;2.35;;;20.80;99.90;;;;;;5033447;28;20030;-72
2022/09/08 01:27:09;;;;;;;3.55;2.88;;;20.80;99.90;;;;;;5033582;28;20025;-71
2022/09/08 01:29:37;;;;;;;4.10;2.75;;;20.70;99.90;;;;;;5033259;28;20112;-72
2022/09/08 01:32:04;;;;;;;4.03;2.97;;;20.60;99.90;;;;;;5033654;28;20018;-72
2022/09/08 01:34:38;;;;;;;2.78;2.30;;;20.60;99.90;;;;;;5033425;28;20029;-72
2022/09/08 01:37:03;;;;;;;4.35;2.67;;;20.70;99.90;;;;;;5033254;28;20064;-72
2022/09/08 01:39:29;;;;;;;3.25;2.78;;;20.60;99.90;;;;;;5015748;28;20025;-71
2022/09/08 01:41:55;;;;;;;3.35;2.70;;;20.60;99.90;;;;;;5033312;28;20026;-71
2022/09/08 01:44:21;;;;;;;4.75;2.80;;;20.50;99.90;;;;;;5033145;28;20014;-72
2022/09/08 01:46:47;;;;;;;2.30;2.10;;;20.40;99.90;;;;;;5033320;28;20108;-71
2022/09/08 01:49:12;;;;;;;3.60;2.00;;;20.50;99.90;;;;;;5033325;28;20122;-72
2022/09/08 01:51:38;;;;;;;3.00;1.98;;;20.60;99.90;;;;;;5015625;28;20041;-72
2022/09/08 01:54:04;;;;;;;2.45;1.98;;;20.70;99.90;;;;;;5015444;28;20107;-73
2022/09/08 01:56:29;;;;;;;3.75;2.20;;;20.80;99.90;;;;;;5033061;28;20073;-71
2022/09/08 01:58:55;;;;;;;3.50;2.33;;;20.80;99.90;;;;;;5015509;28;20033;-71
2022/09/08 02:01:22;;;;;;;2.67;2.20;;;20.70;99.90;;;;;;5035444;28;20028;-72
2022/09/08 02:03:47;;;;;;;1.98;1.77;;;20.70;99.90;;;;;;5019436;28;20105;-71
2022/09/08 02:06:13;;;;;;;2.42;1.58;;;20.70;99.90;;;;;;5019460;28;20128;-72
2022/09/08 02:08:39;;;;;;;1.90;1.65;;;20.80;99.90;;;;;;5037021;28;20017;-72
2022/09/08 02:11:05;;;;;;;1.70;1.60;;;20.80;99.90;;;;;;5019339;28;20052;-72
2022/09/08 02:13:31;;;;;;;1.27;1.17;;;20.90;99.90;;;;;;5036885;28;20021;-71
2022/09/08 02:15:58;;;;;;;1.38;1.27;;;21.00;99.90;;;;;;5019042;28;20056;-72
2022/09/08 02:18:24;;;;;;;1.40;1.30;;;21.00;99.90;;;;;;5036906;28;20071;-72
2022/09/08 02:20:50;;;;;;;1.02;0.93;;;21.00;99.90;;;;;;5036655;28;20029;-71
2022/09/08 02:23:16;;;;;;;1.45;1.00;;;21.00;99.90;;;;;;5018973;28;20499;-72
2022/09/08 02:25:41;;;;;;;1.35;1.25;;;21.10;99.90;;;;;;5036679;28;20049;-72
2022/09/08 02:28:07;;;;;;;2.00;1.25;;;21.10;99.90;;;;;;5019155;28;20045;-72
2022/09/08 02:30:33;;;;;;;1.73;1.20;;;21.10;99.90;;;;;;5036617;28;20383;-73
2022/09/08 02:32:58;;;;;;;2.10;1.58;;;21.10;99.90;;;;;;5018955;28;20460;-72
2022/09/08 02:35:24;;;;;;;1.30;1.15;;;21.10;99.90;;;;;;5036595;28;20044;-70
2022/09/08 02:37:50;;;;;;;1.52;1.33;;;21.10;99.90;;;;;;5036636;28;20026;-72
2022/09/08 02:40:15;;;;;;;1.33;0.90;;;21.10;99.90;;;;;;5036406;28;20022;-71
2022/09/08 02:42:41;;;;;;;2.03;1.25;;;21.10;99.90;;;;;;5036139;28;20108;-72
2022/09/08 02:45:11;;;;;;;2.42;1.15;;;21.10;99.90;;;;;;5036398;28;20030;-71
2022/09/08 02:47:36;;;;;;;1.67;1.05;;;21.10;99.90;;;;;;5036650;28;20022;-72
2022/09/08 02:50:02;;;;;;;2.00;1.10;;;21.10;99.90;;;;;;5018945;28;20036;-71
2022/09/08 02:52:30;;;;;;;1.13;1.02;;;21.10;99.90;;;;;;5036851;28;20029;-72
2022/09/08 02:54:56;;;;;;;1.13;0.93;;;21.10;99.90;;;;;;5018369;28;20128;-72
2022/09/08 02:57:22;;;;;;;2.20;1.00;;;21.10;99.90;;;;;;5036319;28;20465;-72
2022/09/08 02:59:47;;;;;;;1.55;1.45;;;21.10;99.90;;;;;;5036206;28;20018;-71
2022/09/08 03:02:13;;;;;;;1.88;1.10;;;21.10;99.90;;;;;;5018571;28;20045;-71
2022/09/08 03:04:39;;;;;;;1.60;1.40;;;21.00;99.90;;;;;;5036189;28;20030;-71
2022/09/08 03:07:05;;;;;;;1.95;1.40;;;21.00;99.90;;;;;;5018694;28;20444;-71
2022/09/08 03:09:31;;;;;;;1.70;1.42;;;21.00;99.90;;;;;;5018121;28;20049;-72
2022/09/08 03:11:56;;;;;;;2.25;1.30;;;21.00;99.90;;;;;;5018212;28;20025;-71
2022/09/08 03:14:22;;;;;;;1.63;1.25;;;20.90;99.90;;;;;;5018199;28;20033;-71
2022/09/08 03:16:48;;;;;;;3.72;1.60;;;20.90;99.90;;;;;;5035693;28;20100;-71
2022/09/08 03:19:14;;;;;;;1.73;1.45;;;20.80;99.90;;;;;;5018136;28;20022;-72
2022/09/08 03:21:39;;;;;;;2.28;1.50;;;20.70;99.90;;;;;;5035913;28;20399;-71
2022/09/08 03:24:05;;;;;;;1.80;1.20;;;20.70;99.90;;;;;;5035339;28;20491;-71
2022/09/08 03:26:30;;;;;;;1.55;1.20;;;20.70;99.90;;;;;;5017722;28;20017;-70
2022/09/08 03:28:56;;;;;;;1.30;1.20;;;20.70;99.90;;;;;;5035636;28;20049;-71
2022/09/08 03:31:22;;;;;;;1.88;1.33;;;20.70;99.90;;;;;;5035702;28;20033;-71
2022/09/08 03:33:49;;;;;;;1.33;1.23;;;20.70;99.90;;;;;;5017680;28;20021;-72
2022/09/08 03:36:16;;;;;;;1.77;1.25;;;20.70;99.90;;;;;;5017631;28;20442;-70
2022/09/08 03:38:43;;;;;;;1.35;1.25;;;20.60;99.90;;;;;;5035238;28;20022;-71
2022/09/08 03:41:11;;;;;;;1.58;0.93;;;20.60;99.90;;;;;;5017983;28;20107;-72
2022/09/08 03:43:37;;;;;;;1.77;1.00;;;20.70;99.90;;;;;;5035359;28;20515;-71
2022/09/08 03:46:07;;;;;;;1.20;1.10;;;20.70;99.90;;;;;;5017603;28;20029;-71
2022/09/08 03:48:34;;;;;;;1.10;1.00;;;20.70;99.90;;;;;;5035205;28;20025;-70
2022/09/08 03:51:25;;;;;;;0.95;0.90;;;20.70;99.90;;;;;;5017528;28;20468;-72
2022/09/08 03:53:53;;;;;;;0.93;0.80;;;20.60;99.90;;;;;;5017286;28;20055;-70
2022/09/08 03:56:20;;;;;;;1.08;0.93;;;20.60;99.90;;;;;;5017083;28;20046;-71
2022/09/08 03:58:46;;;;;;;1.27;1.17;;;20.60;99.90;;;;;;5035176;28;20152;-72
2022/09/08 04:01:15;;;;;;;2.20;1.23;;;20.60;99.90;;;;;;5034971;28;20028;-70
2022/09/08 04:03:41;;;;;;;1.63;1.23;;;20.60;99.90;;;;;;5017235;28;20025;-71
2022/09/08 04:06:07;;;;;;;1.38;1.27;;;20.60;99.90;;;;;;5017287;28;20029;-72
2022/09/08 04:08:32;;;;;;;1.23;1.13;;;20.50;99.90;;;;;;5016963;28;20030;-70
2022/09/08 04:10:58;;;;;;;1.60;1.50;;;20.50;99.90;;;;;;5034906;28;20025;-70
2022/09/08 04:13:24;;;;;;;1.90;1.80;;;20.50;99.90;;;;;;5034788;28;20088;-72
2022/09/08 04:15:50;;;;;;;2.10;1.50;;;20.50;99.90;;;;;;5016804;28;20036;-71
2022/09/08 04:18:16;;;;;;;2.28;2.08;;;20.50;99.90;;;;;;5017211;28;20205;-72
2022/09/08 04:20:41;;;;;;;2.30;2.08;;;20.50;99.90;;;;;;5034645;28;20021;-72
2022/09/08 04:23:08;;;;;;;2.33;1.85;;;20.50;99.90;;;;;;5016050;28;20032;-72
2022/09/08 04:25:34;;;;;;;1.90;1.80;;;20.40;99.90;;;;;;5016808;28;20108;-72
2022/09/08 04:27:59;;;;;;;2.35;2.15;;;20.40;99.90;;;;;;5016765;28;20125;-70
2022/09/08 04:30:25;;;;;;;2.05;1.95;;;20.40;99.90;;;;;;5034373;28;20029;-72
2022/09/08 04:32:51;;;;;;;3.53;2.60;;;20.40;99.90;;;;;;5016604;28;20030;-70
2022/09/08 04:35:17;;;;;;;2.35;2.03;;;20.40;99.90;;;;;;5017144;28;20033;-72
2022/09/08 04:37:42;;;;;;;2.17;1.70;;;20.40;99.90;;;;;;5034044;28;20478;-70
2022/09/08 04:40:08;;;;;;;1.92;1.80;;;20.40;99.90;;;;;;5034158;28;20049;-71
2022/09/08 04:42:35;;;;;;;2.03;1.83;;;20.40;99.90;;;;;;5017084;28;20021;-71
2022/09/08 04:45:01;;;;;;;2.58;1.73;;;20.40;99.90;;;;;;5034184;28;20476;-71
2022/09/08 04:47:27;;;;;;;3.05;2.17;;;20.30;99.90;;;;;;5034014;28;20026;-72
2022/09/08 04:49:53;;;;;;;3.25;2.20;;;20.30;99.90;;;;;;5034140;28;20036;-71
2022/09/08 04:52:24;;;;;;;3.58;3.17;;;20.30;99.90;;;;;;5033741;28;20022;-72
2022/09/08 04:54:49;;;;;;;3.50;2.20;;;20.20;99.90;;;;;;5033590;28;20030;-71
2022/09/08 04:57:15;;;;;;;2.10;1.90;;;20.10;99.90;;;;;;5015893;28;20518;-70
2022/09/08 04:59:41;;;;;;;2.42;1.88;;;20.10;99.90;;;;;;5016048;28;20052;-71
2022/09/08 05:02:07;;;;;;;3.10;2.20;;;20.20;99.90;;;;;;5016043;28;20030;-70
2022/09/08 05:04:32;;;;;;;2.85;1.90;;;20.30;99.90;;;;;;5033809;28;20120;-71
2022/09/08 05:06:58;;;;;;;1.60;1.50;;;20.30;99.90;;;;;;5033336;28;20018;-72
2022/09/08 05:09:24;;;;;;;1.92;1.55;;;20.30;99.90;;;;;;5015764;28;20029;-72
2022/09/08 05:11:50;;;;;;;1.73;1.63;;;20.40;99.90;;;;;;5015710;28;20034;-73
2022/09/08 05:14:16;;;;;;;2.25;1.45;;;20.40;99.90;;;;;;5015678;28;20105;-72
2022/09/08 05:16:41;;;;;;;1.92;1.60;;;20.40;99.90;;;;;;5033388;28;20017;-71
2022/09/08 05:19:07;;;;;;;2.22;2.03;;;20.50;99.90;;;;;;5033265;28;20388;-72
2022/09/08 05:21:35;;;;;;;3.63;2.28;;;20.60;99.90;;;;;;5032935;28;20034;-70
2022/09/08 05:24:02;;;;;;;2.45;2.05;;;20.60;99.90;;;;;;5033321;28;20021;-72
2022/09/08 05:26:29;;;;;;;2.10;1.90;;;20.50;99.90;;;;;;5015534;28;20087;-72
2022/09/08 05:28:55;;;;;;;2.90;2.00;;;20.60;99.90;;;;;;5033397;28;20025;-70
2022/09/08 05:31:23;;;;;;;2.42;2.22;;;20.60;99.90;;;;;;5031835;28;20619;-74
2022/09/08 05:33:49;;;;;;;23.02;8.80;;;20.60;99.90;;;;;;5014151;28;20021;-70
2022/09/08 05:36:17;;;;;;;5.15;4.05;;;20.60;99.90;;;;;;5031539;28;20029;-73
2022/09/08 05:38:44;;;;;;;4.93;2.95;;;20.60;99.90;;;;;;5032146;28;20495;-73
2022/09/08 05:41:10;;;;;;;21.80;7.47;;;20.60;99.90;;;;;;5014955;28;20034;-70
2022/09/08 05:43:36;;;;;;;17.02;7.68;;;20.80;99.90;;;;;;5030748;28;20021;-69
2022/09/08 05:46:02;;;;;;;8.77;4.68;;;21.00;99.90;;;;;;5031362;28;20033;-70
2022/09/08 05:48:29;;;;;;;24.75;13.57;;;21.00;99.90;;;;;;5014009;28;20113;-72
2022/09/08 05:50:54;;;;;;;13.63;11.13;;;21.40;99.90;;;;;;5031281;28;20551;-71
2022/09/08 05:53:20;;;;;;;9.05;8.07;;;23.40;99.90;;;;;;5031568;28;20093;-74
2022/09/08 05:55:56;;;;;;;6.82;6.15;;;25.30;99.90;;;;;;5031655;28;20050;-73
2022/09/08 05:58:21;;;;;;;5.05;4.53;;;27.30;99.90;;;;;;5030922;28;20191;-70
2022/09/08 06:00:53;;;;;;;4.30;3.53;;;28.70;99.90;;;;;;5031619;28;20109;-70
2022/09/08 06:03:19;;;;;;;4.63;3.00;;;29.90;99.90;;;;;;5026736;28;20021;-72
2022/09/08 06:05:45;;;;;;;2.28;2.10;;;30.60;95.90;;;;;;5030716;28;20464;-68
2022/09/08 06:08:10;;;;;;;2.63;2.42;;;31.50;94.10;;;;;;5031422;28;20021;-72
2022/09/08 06:10:37;;;;;;;3.55;1.40;;;32.40;92.30;;;;;;5013115;28;20025;-72
2022/09/08 06:13:03;;;;;;;4.88;2.40;;;33.20;85.10;;;;;;5030399;28;20117;-70
2022/09/08 06:15:29;;;;;;;2.22;1.42;;;33.80;76.80;;;;;;5012567;28;20437;-71
2022/09/08 06:17:56;;;;;;;1.60;1.23;;;34.20;72.00;;;;;;5030562;28;20729;-71
2022/09/08 06:20:23;;;;;;;1.98;1.63;;;34.60;69.60;;;;;;5030272;28;20021;-71
2022/09/08 06:22:48;;;;;;;2.30;1.70;;;35.10;67.80;;;;;;5030043;28;20025;-69
2022/09/08 06:25:14;;;;;;;2.58;1.70;;;35.60;65.30;;;;;;5031187;28;20361;-69
2022/09/08 06:27:51;;;;;;;3.15;1.70;;;36.00;62.20;;;;;;5030635;28;20473;-69
2022/09/08 06:30:18;;;;;;;9.25;3.25;;;36.20;61.30;;;;;;5031807;28;20013;-73
2022/09/08 06:33:02;;;;;;;2.88;1.63;;;36.60;60.50;;;;;;5031730;28;20478;-70
2022/09/08 06:35:30;;;;;;;1.90;1.50;;;36.90;60.20;;;;;;5031210;28;20025;-72
2022/09/08 06:37:59;;;;;;;2.90;1.08;;;37.10;59.20;;;;;;5031407;28;20029;-71
2022/09/08 06:40:34;;;;;;;1.10;1.00;;;37.50;58.70;;;;;;5013608;28;20521;-72
2022/09/08 06:43:16;;;;;;;1.70;1.20;;;37.70;58.20;;;;;;5032437;28;20021;-68
2022/09/08 06:45:49;;;;;;;1.75;1.00;;;38.20;57.20;;;;;;5031300;28;20448;-67
2022/09/08 06:48:15;;;;;;;1.63;0.90;;;38.70;56.10;;;;;;5035737;28;20047;-72
2022/09/08 06:51:06;;;;;;;0.95;0.95;;;38.70;55.60;;;;;;5034187;28;20375;-72
2022/09/08 06:53:42;;;;;;;1.48;1.10;;;38.80;54.60;;;;;;5033261;28;20060;-70
2022/09/08 06:56:19;;;;;;;1.30;0.98;;;39.00;54.60;;;;;;5033445;28;20092;-72
2022/09/08 06:58:46;;;;;;;1.20;1.10;;;39.10;53.40;;;;;;5016170;28;20544;-70
2022/09/08 07:01:54;;;;;;;1.88;1.30;;;39.10;53.40;;;;;;5018791;28;20034;-68
2022/09/08 07:04:23;;;;;;;1.92;1.13;;;39.60;51.50;;;;;;4977537;28;20825;-67
2022/09/08 07:07:09;;;;;;;1.45;1.10;;;39.60;50.60;;;;;;5024516;28;20029;-67
2022/09/08 07:10:01;;;;;;;1.77;1.10;;;39.70;51.80;;;;;;5034075;28;20099;-67
2022/09/08 07:12:50;;;;;;;2.05;1.15;;;40.10;49.80;;;;;;5031745;28;20026;-66
2022/09/08 07:15:25;;;;;;;2.15;1.13;;;40.30;48.90;;;;;;5031963;28;20041;-71
2022/09/08 07:18:00;;;;;;;1.05;0.93;;;40.60;50.70;;;;;;5024108;28;20026;-69
2022/09/08 07:20:28;;;;;;;3.17;1.55;;;41.10;50.10;;;;;;5031386;28;20061;-67
2022/09/08 07:23:11;;;;;;;1.58;1.10;;;41.50;50.50;;;;;;5016590;28;20540;-65
2022/09/08 07:25:53;;;;;;;1.30;1.20;;;41.70;46.70;;;;;;5034086;28;20033;-67
2022/09/08 07:28:24;;;;;;;1.65;1.40;;;41.80;48.90;;;;;;5025071;28;20029;-68
2022/09/08 07:31:20;;;;;;;1.23;1.10;;;42.00;47.90;;;;;;5034387;28;20025;-67
2022/09/08 07:33:51;;;;;;;2.53;1.23;;;42.20;48.40;;;;;;5004220;28;20457;-68
2022/09/08 07:36:20;;;;;;;1.65;1.20;;;42.50;48.80;;;;;;5015894;28;20048;-68
2022/09/08 07:38:48;;;;;;;1.65;1.38;;;42.80;47.60;;;;;;5032204;28;20032;-66
2022/09/08 07:41:23;;;;;;;3.17;1.60;;;42.30;47.50;;;;;;5034178;28;20058;-68
2022/09/08 07:43:53;;;;;;;2.47;1.48;;;42.20;47.40;;;;;;5032942;28;20403;-67
2022/09/08 07:46:22;;;;;;;1.70;1.30;;;42.40;47.90;;;;;;5027147;28;20033;-68
2022/09/08 07:49:05;;;;;;;1.17;1.10;;;42.70;46.50;;;;;;5032980;28;20110;-72
2022/09/08 07:51:41;;;;;;;3.10;1.65;;;42.80;47.50;;;;;;5031198;28;20057;-68
2022/09/08 07:54:12;;;;;;;1.77;1.60;;;42.80;45.40;;;;;;5025676;28;20072;-68
2022/09/08 07:57:01;;;;;;;1.95;1.70;;;42.60;45.90;;;;;;5029512;28;20056;-70
2022/09/08 07:59:33;;;;;;;3.35;1.70;;;42.70;45.50;;;;;;5010494;28;20061;-68
2022/09/08 08:02:34;;;;;;;1.35;1.25;;;42.90;44.30;;;;;;5013796;28;20495;-65
2022/09/08 08:05:25;;;;;;;3.20;1.80;;;43.00;46.10;;;;;;5011438;28;20152;-64
2022/09/08 08:08:02;;;;;;;1.40;1.30;;;43.30;44.40;;;;;;5014781;28;20077;-67
2022/09/08 08:10:52;;;;;;;2.63;1.52;;;43.50;45.50;;;;;;5014060;28;20028;-67
2022/09/08 08:13:30;;;;;;;1.65;1.50;;;43.60;45.40;;;;;;4987457;28;20030;-67
2022/09/08 08:16:00;;;;;;;1.50;1.20;;;43.70;46.10;;;;;;5026844;28;20087;-65
2022/09/08 08:18:38;;;;;;;1.50;1.40;;;44.00;44.10;;;;;;5028831;28;20392;-67
2022/09/08 08:21:17;;;;;;;1.75;1.65;;;44.00;43.70;;;;;;5031072;28;20041;-69
2022/09/08 08:23:53;;;;;;;1.58;1.48;;;43.80;44.30;;;;;;5028748;28;20040;-67
2022/09/08 08:26:31;;;;;;;2.72;2.00;;;43.90;44.80;;;;;;5021822;28;20076;-68
2022/09/08 08:29:26;;;;;;;2.10;1.90;;;43.80;45.10;;;;;;5029109;28;20057;-67
2022/09/08 08:32:00;;;;;;;2.42;1.67;;;43.40;43.90;;;;;;5030980;28;20025;-67
2022/09/08 08:34:32;;;;;;;1.55;1.30;;;43.30;44.80;;;;;;5031409;28;20021;-64
2022/09/08 08:37:05;;;;;;;1.25;1.08;;;43.10;44.40;;;;;;5032473;28;20022;-70
2022/09/08 08:39:35;;;;;;;1.42;1.33;;;42.80;44.90;;;;;;5022469;28;20112;-72
2022/09/08 08:42:31;;;;;;;1.30;1.10;;;42.60;44.80;;;;;;5018263;28;20066;-68
2022/09/08 08:44:56;;;;;;;2.10;1.27;;;42.30;43.20;;;;;;5018193;28;20032;-68
2022/09/08 08:47:34;;;;;;;1.08;0.98;;;41.90;44.10;;;;;;5023216;28;20026;-70
2022/09/08 08:50:21;;;;;;;2.05;1.10;;;41.60;43.90;;;;;;5026888;28;20035;-69
2022/09/08 08:53:02;;;;;;;2.72;1.20;;;41.40;45.30;;;;;;5026308;28;20052;-65
2022/09/08 08:55:34;;;;;;;2.25;1.20;;;40.70;44.60;;;;;;5027144;28;20045;-67
2022/09/08 08:58:31;;;;;;;1.75;1.40;;;40.20;45.90;;;;;;5006402;28;20069;-67
2022/09/08 09:01:27;;;;;;;3.20;1.65;;;39.40;47.00;;;;;;5016916;28;20107;-68
2022/09/08 09:04:13;;;;;;;1.48;1.27;;;39.40;46.40;;;;;;5020622;28;20108;-67
2022/09/08 09:07:06;;;;;;;2.10;1.40;;;39.40;46.50;;;;;;5020464;28;20083;-67
2022/09/08 09:09:56;;;;;;;2.15;1.42;;;39.10;46.30;;;;;;5026125;28;20124;-69
2022/09/08 09:12:36;;;;;;;2.58;1.50;;;38.90;47.80;;;;;;5012734;28;20026;-68
2022/09/08 09:15:26;;;;;;;1.70;1.30;;;38.60;48.10;;;;;;5029879;28;20571;-69
2022/09/08 09:18:09;;;;;;;1.55;1.27;;;38.20;49.10;;;;;;5030568;28;20087;-68
2022/09/08 09:20:38;;;;;;;1.00;0.90;;;38.10;49.60;;;;;;5028764;28;20071;-66
2022/09/08 09:23:27;;;;;;;1.17;1.08;;;38.30;49.60;;;;;;5028415;28;20488;-67
2022/09/08 09:25:59;;;;;;;3.97;1.52;;;38.50;48.50;;;;;;5030361;28;20041;-69
2022/09/08 09:28:54;;;;;;;1.17;1.08;;;38.50;45.60;;;;;;5031113;28;20036;-68
2022/09/08 09:32:08;;;;;;;2.25;0.98;;;38.40;47.40;;;;;;5030026;28;20029;-68
2022/09/08 09:35:21;;;;;;;1.90;1.30;;;38.50;47.40;;;;;;5008238;28;20502;-69
2022/09/08 09:38:26;;;;;;;1.77;1.05;;;38.60;48.30;;;;;;5019584;28;20731;-71
2022/09/08 09:41:30;;;;;;;1.30;1.20;;;38.70;49.00;;;;;;5031602;28;20407;-75
2022/09/08 09:44:34;;;;;;;1.55;1.27;;;38.70;47.10;;;;;;5010971;28;20373;-72
2022/09/08 09:47:28;;;;;;;4.32;1.60;;;38.40;49.80;;;;;;5027328;28;20021;-73
2022/09/08 09:50:35;;;;;;;2.80;1.67;;;38.60;50.90;;;;;;5027658;28;20029;-70
2022/09/08 09:53:43;;;;;;;1.60;1.48;;;38.70;47.30;;;;;;4929873;29;20152;-71
2022/09/08 09:56:30;;;;;;;1.48;1.38;;;38.40;47.60;;;;;;5014742;28;20048;-71
2022/09/08 09:59:08;;;;;;;4.15;1.63;;;38.40;47.10;;;;;;5024895;28;20093;-71
2022/09/08 10:02:10;;;;;;;4.75;2.00;;;38.60;47.40;;;;;;5026152;28;20377;-70
2022/09/08 10:04:36;;;;;;;;;;;38.60;44.90;;;;;;5008277;28;20442;-70
2022/09/08 10:07:18;;;;;;;2.83;1.17;;;38.40;44.60;;;;;;5026010;28;19909;-69
2022/09/08 10:10:09;;;;;;;2.15;1.52;;;38.30;44.60;;;;;;5006975;28;20395;-68
2022/09/08 10:13:11;;;;;;;1.75;1.20;;;38.60;42.80;;;;;;5022645;28;20048;-69
2022/09/08 10:15:56;;;;;;;1.73;1.10;;;38.80;41.50;;;;;;5017999;28;20484;-68
2022/09/08 10:18:46;;;;;;;1.85;1.25;;;39.10;40.50;;;;;;5028735;28;20030;-68
2022/09/08 10:21:29;;;;;;;1.25;1.15;;;39.00;41.70;;;;;;5029330;28;20315;-69
2022/09/08 10:24:14;;;;;;;1.30;1.00;;;39.10;41.30;;;;;;5033249;28;20025;-68
2022/09/08 10:27:01;;;;;;;1.95;1.00;;;39.10;42.40;;;;;;5033551;28;20075;-68
2022/09/08 10:30:01;;;;;;;2.10;1.08;;;39.40;42.10;;;;;;5033930;28;20032;-69
2022/09/08 10:32:51;;;;;;;1.20;1.10;;;39.90;40.80;;;;;;5034098;28;20113;-68
2022/09/08 10:35:46;;;;;;;2.05;1.30;;;40.10;41.70;;;;;;5031994;28;20638;-69
2022/09/08 10:38:20;;;;;;;2.05;1.42;;;40.10;41.30;;;;;;5032110;28;20026;-69
2022/09/08 10:40:55;;;;;;;2.05;1.20;;;39.80;41.90;;;;;;5031645;28;20017;-69
2022/09/08 10:43:32;;;;;;;2.28;1.52;;;39.70;41.80;;;;;;5029089;28;20068;-69
2022/09/08 10:46:28;;;;;;;2.97;1.23;;;39.60;42.70;;;;;;5028860;28;20022;-68
2022/09/08 10:49:10;;;;;;;1.15;1.05;;;39.50;41.90;;;;;;5029991;28;20026;-68
2022/09/08 10:51:39;;;;;;;1.25;1.10;;;39.50;41.20;;;;;;5029927;28;20036;-68
2022/09/08 10:54:34;;;;;;;1.48;1.17;;;39.40;43.00;;;;;;5032726;28;20071;-68
2022/09/08 10:57:08;;;;;;;1.83;1.20;;;39.30;42.20;;;;;;5027971;28;20068;-68
2022/09/08 10:59:58;;;;;;;2.00;1.40;;;39.30;43.90;;;;;;5034882;28;20113;-68
2022/09/08 11:02:39;;;;;;;2.10;1.63;;;39.50;43.10;;;;;;5036355;28;20087;-67
2022/09/08 11:05:08;;;;;;;2.08;1.33;;;39.30;42.20;;;;;;5035630;28;20571;-68
2022/09/08 11:08:10;;;;;;;2.17;1.40;;;39.30;41.30;;;;;;5034211;28;20029;-68
2022/09/08 11:11:03;;;;;;;2.25;1.60;;;39.10;43.70;;;;;;5033010;28;20507;-68
2022/09/08 11:13:37;;;;;;;3.05;1.85;;;39.10;41.70;;;;;;5022451;28;20032;-69
2022/09/08 11:16:12;;;;;;;3.40;1.63;;;39.00;42.80;;;;;;5021060;28;20696;-68
2022/09/08 11:19:15;;;;;;;1.42;1.13;;;39.20;42.50;;;;;;5023058;28;20079;-68
2022/09/08 11:22:02;;;;;;;3.67;1.77;;;39.50;42.00;;;;;;5033729;28;20367;-67
2022/09/08 11:24:45;;;;;;;1.63;1.38;;;39.40;42.50;;;;;;5033007;28;20036;-68
2022/09/08 11:27:23;;;;;;;3.78;1.70;;;39.30;42.10;;;;;;5016954;28;20026;-68
2022/09/08 11:30:07;;;;;;;1.95;1.35;;;39.40;43.80;;;;;;5033266;28;20425;-65
2022/09/08 11:32:40;;;;;;;1.60;1.48;;;39.50;44.00;;;;;;5027126;28;20095;-66
2022/09/08 11:35:27;;;;;;;2.38;1.67;;;39.70;41.90;;;;;;5030774;28;20076;-69
2022/09/08 11:38:02;;;;;;;1.55;1.30;;;39.90;41.30;;;;;;5032616;28;20037;-67
2022/09/08 11:41:02;;;;;;;2.97;1.52;;;40.10;42.30;;;;;;5032192;28;20108;-67
2022/09/08 11:43:47;;;;;;;2.65;1.60;;;40.00;42.10;;;;;;5029437;28;20121;-67
2022/09/08 11:46:38;;;;;;;1.98;1.30;;;39.50;42.50;;;;;;5029629;28;20375;-67
2022/09/08 11:49:30;;;;;;;1.58;1.35;;;39.50;41.60;;;;;;5032916;28;20029;-66
2022/09/08 11:52:28;;;;;;;2.30;1.45;;;39.60;41.20;;;;;;5033036;28;20534;-67
2022/09/08 11:55:31;;;;;;;3.47;1.60;;;39.60;41.80;;;;;;5030542;28;20045;-66
2022/09/08 11:58:18;;;;;;;3.10;1.13;;;39.80;44.30;;;;;;5033915;28;20041;-67
2022/09/08 12:01:19;;;;;;;1.88;1.50;;;40.00;42.10;;;;;;5034514;28;20026;-67
2022/09/08 12:03:45;;;;;;;2.90;1.40;;;40.10;45.60;;;;;;5031200;28;20491;-68
2022/09/08 12:06:33;;;;;;;3.72;1.50;;;40.30;43.90;;;;;;5031032;28;20029;-68
2022/09/08 12:09:31;;;;;;;2.47;1.58;;;40.50;39.10;;;;;;5034230;28;20033;-67
2022/09/08 12:12:15;;;;;;;3.35;1.48;;;40.40;42.30;;;;;;5029404;28;20041;-67
2022/09/08 12:15:12;;;;;;;1.73;1.10;;;40.50;41.00;;;;;;5017454;28;20033;-67
2022/09/08 12:17:47;;;;;;;1.83;1.40;;;40.60;42.20;;;;;;5018906;28;20050;-67
2022/09/08 12:20:16;;;;;;;2.00;1.40;;;41.00;42.00;;;;;;5026944;28;20029;-68
2022/09/08 12:23:14;;;;;;;1.90;1.70;;;40.90;39.60;;;;;;5032571;28;20333;-68
2022/09/08 12:25:43;;;;;;;1.77;1.40;;;40.90;40.30;;;;;;4979687;28;20040;-68
2022/09/08 12:28:24;;;;;;;2.25;1.60;;;40.90;39.30;;;;;;5032050;28;20060;-67
2022/09/08 12:31:08;;;;;;;;;;;40.50;39.30;;;;;;5032098;28;20083;-68
2022/09/08 12:33:57;;;;;;;1.63;1.50;;;40.10;40.40;;;;;;5030491;28;19909;-68
2022/09/08 12:36:44;;;;;;;1.73;1.40;;;40.40;40.20;;;;;;5029793;28;20033;-68
2022/09/08 12:39:32;;;;;;;2.65;1.30;;;40.50;40.10;;;;;;5031567;28;20025;-67
2022/09/08 12:42:16;;;;;;;1.60;1.40;;;40.70;40.70;;;;;;5032199;28;20029;-67
2022/09/08 12:45:03;;;;;;;2.20;1.60;;;41.00;42.00;;;;;;5032572;28;20083;-68
2022/09/08 12:47:56;;;;;;;2.38;1.42;;;41.10;39.90;;;;;;5034402;28;20080;-68
2022/09/08 12:51:00;;;;;;;2.67;1.30;;;40.90;39.30;;;;;;5033708;28;20022;-68
2022/09/08 12:54:08;;;;;;;2.15;1.65;;;40.50;39.80;;;;;;5012230;28;20037;-67
2022/09/08 12:56:43;;;;;;;2.13;1.67;;;40.60;39.40;;;;;;5011943;28;20488;-68
2022/09/08 12:59:15;;;;;;;2.72;1.70;;;40.80;41.10;;;;;;5028355;28;20033;-67
2022/09/08 13:01:49;;;;;;;1.88;1.70;;;40.90;39.90;;;;;;5031580;28;20036;-68
2022/09/08 13:04:51;;;;;;;2.72;1.70;;;41.10;37.90;;;;;;5019795;28;20075;-68
2022/09/08 13:07:53;;;;;;;2.42;1.60;;;41.30;38.80;;;;;;5028803;28;20083;-67
2022/09/08 13:10:27;;;;;;;1.98;1.63;;;41.40;39.00;;;;;;5032523;28;20029;-68
2022/09/08 13:12:52;;;;;;;2.15;1.60;;;41.10;38.10;;;;;;5030890;28;20090;-68
2022/09/08 13:15:33;;;;;;;3.67;2.08;;;41.00;39.90;;;;;;5031256;28;20025;-67
2022/09/08 13:18:27;;;;;;;1.80;1.67;;;40.70;39.10;;;;;;5014491;28;20441;-68
2022/09/08 13:21:08;;;;;;;1.88;1.70;;;40.30;39.60;;;;;;5030532;28;20526;-68
2022/09/08 13:23:38;;;;;;;1.93;1.60;;;40.10;40.10;;;;;;5023838;28;20476;-68
2022/09/08 13:26:23;;;;;;;2.72;1.75;;;40.20;39.60;;;;;;5032949;28;20328;-68
2022/09/08 13:29:16;;;;;;;2.00;1.70;;;40.30;39.80;;;;;;5031006;28;20036;-67
2022/09/08 13:31:47;;;;;;;5.30;2.15;;;40.10;39.10;;;;;;5026245;28;20033;-68
2022/09/08 13:34:40;;;;;;;3.27;1.60;;;39.90;41.30;;;;;;5026103;28;20064;-68
2022/09/08 13:37:33;;;;;;;3.08;1.90;;;39.70;41.10;;;;;;5031162;28;20048;-68